메인 페이지
METAR-TAF:

METAR-TAF

공항 :

상트페테르부르크, 러시아

풀코보 국제공항

위도: 59-58N, 경도: 030-18E, 고도: 4m

현재 날씨관측

예보는 23분 전, 05:30시(UTC)에 발표되었습니다.
8kt
온도 -14°C
습도 92%
기압 1024 hPa
시정 10km 이상
고도 1000ft 상공 구름 보통

METAR: ULLI 200530Z 27004MPS 9999 SCT010 M14/M15 Q1024 R28L/490538 R28R/490345 NOSIG

시각: 08:53 (05:53 UTC)

예보

예보는 53분 전, 05:00시(UTC)에 발표되었습니다.
예보 대상 시간: 20일 06시부터 21일 06시까지 (UTC)
6kt, 순간 최대 풍속 16kt
시정: 6000m
고도 1100ft 상공 구름 많음
고도 2000ft 상공 구름 많음
일시적
20일 06시부터 20일 21시까지 (UTC)
북북서8kt
시정: 3100m
고도 1500ft 상공 구름 많음, 적란운.
약한소낙눈, 박무
전환 중
20일 21시부터 20일 23시까지 (UTC)
북서6kt
일시적
20일 21시부터 21일 06시까지 (UTC)
시정: 1200m
고도 500ft 상공 구름 많음
고도 1500ft 상공 구름 많음, 적란운.
약한소낙눈, 박무

TAF: ULLI 200500Z 2006/2106 28003G08MPS 6000 BKN011 BKN020 TEMPO 2006/2021 33004MPS 3100 -SHSN BR BKN015CB BECMG 2021/2023 31003MPS TEMPO 2021/2106 1200 -SHSN BR BKN005 BKN015CB

4,000개 이상의 공항 관측 자료 및 예보 (METAR 및 TAF 보고).

지도상에서 검색 가능한 기상관측소가 노란 점과 빨간 점으로 표시되어 있습니다.

기상관측소 명을 보려면 표시 위로 마우스를 이동하세요.

날씨 관측과 예보를 보려면 클릭하세요.

지도 변경 : 확대하려면 엑스 표시가 있는 녹색 버튼, 축소하려면 빼기 표시가 있는 녹색 버튼, 다음 페이지의 지도를 보려면 녹색 화살표를 클릭하세요.


METAR-TAF: